WAT3465 EVRA-FYWH
Flight info
| Callsign | WAT3465 |
|---|---|
| Flight time | N/A |
| Altitude | 36000 |
| Route | ASKOR DCT GOLAD/N0485F360 M159 SUPAK DCT BODZA DCT VEBAL DCT ELTIB DCT KATTI DCT BUMOK DCT SOBRI DCT NELDA DCT VARIG M707 ABU N163 GRT A403 SEB M214 ELGAN DCT EBRAX DCT EBRAX UA403 MOROS UM998 AMLOD UV30 KSA UT943 VEDRY |
| Aircraft | A359/H-SDE2E3GHIJ3J4J5LM1ORWXY/LB1D1 |
Departure
| Time | N/A |
|---|---|
| Airport | Riga International Airport (EVRA) |
Arrival
| Time | 2026-04-25 06:04 |
|---|---|
| Airport | Hosea Kutako International Airport (FYWH) |
| Time | Latitude | Longitude | Altitude | Speed | Heading |
|---|---|---|---|---|---|
| 2026-04-25 03:53 | -5.89907 | 15.57854 | 35966 ft | 500 kts | 172° |
| 2026-04-25 03:53 | -5.93377 | 15.58227 | 35968 ft | 500 kts | 172° |
| 2026-04-25 03:53 | -6.00254 | 15.58965 | 35969 ft | 501 kts | 172° |
| 2026-04-25 03:54 | -6.07233 | 15.59715 | 35963 ft | 502 kts | 172° |
| 2026-04-25 03:54 | -6.14135 | 15.60458 | 35961 ft | 502 kts | 172° |
| 2026-04-25 03:55 | -6.21089 | 15.61206 | 35962 ft | 502 kts | 172° |
| 2026-04-25 03:55 | -6.28040 | 15.61953 | 35964 ft | 502 kts | 172° |
| 2026-04-25 03:56 | -6.34994 | 15.62702 | 35962 ft | 502 kts | 172° |
| 2026-04-25 03:56 | -6.41938 | 15.63449 | 35967 ft | 502 kts | 172° |
| 2026-04-25 03:57 | -6.48886 | 15.64196 | 35966 ft | 502 kts | 172° |
| 2026-04-25 03:57 | -6.55844 | 15.64945 | 35968 ft | 502 kts | 172° |
| 2026-04-25 03:58 | -6.62793 | 15.65693 | 35966 ft | 502 kts | 172° |
| 2026-04-25 03:58 | -6.69735 | 15.66440 | 35969 ft | 502 kts | 172° |
| 2026-04-25 03:59 | -6.76682 | 15.67188 | 35974 ft | 502 kts | 172° |
| 2026-04-25 03:59 | -6.83620 | 15.67937 | 35973 ft | 502 kts | 172° |
| 2026-04-25 04:00 | -6.90564 | 15.68685 | 35975 ft | 501 kts | 172° |
| 2026-04-25 04:00 | -6.97494 | 15.69433 | 35974 ft | 501 kts | 172° |
| 2026-04-25 04:01 | -7.04439 | 15.70182 | 35978 ft | 501 kts | 172° |
| 2026-04-25 04:01 | -7.11319 | 15.70925 | 35980 ft | 500 kts | 172° |
| 2026-04-25 04:02 | -7.17732 | 15.71616 | 35983 ft | 500 kts | 172° |
| 2026-04-25 04:02 | -7.24653 | 15.72364 | 35983 ft | 500 kts | 172° |
| 2026-04-25 04:03 | -7.31567 | 15.73110 | 35978 ft | 499 kts | 172° |
| 2026-04-25 04:03 | -7.38472 | 15.73857 | 35979 ft | 499 kts | 172° |
| 2026-04-25 04:04 | -7.45379 | 15.74604 | 35982 ft | 499 kts | 172° |
| 2026-04-25 04:04 | -7.52274 | 15.75350 | 35985 ft | 498 kts | 172° |
| 2026-04-25 04:05 | -7.59172 | 15.76096 | 35988 ft | 498 kts | 172° |
| 2026-04-25 04:05 | -7.66058 | 15.76840 | 35989 ft | 498 kts | 172° |
| 2026-04-25 04:06 | -7.72951 | 15.77580 | 35986 ft | 497 kts | 172° |
| 2026-04-25 04:06 | -7.79828 | 15.78323 | 35992 ft | 497 kts | 172° |
| 2026-04-25 04:07 | -7.86711 | 15.79067 | 35994 ft | 497 kts | 172° |
| 2026-04-25 04:07 | -7.93588 | 15.79811 | 35998 ft | 497 kts | 172° |
| 2026-04-25 04:08 | -8.00470 | 15.80554 | 35993 ft | 497 kts | 172° |
| 2026-04-25 04:08 | -8.07340 | 15.81300 | 36000 ft | 497 kts | 172° |
| 2026-04-25 04:09 | -8.14211 | 15.82050 | 35997 ft | 497 kts | 172° |
| 2026-04-25 04:09 | -8.21085 | 15.82799 | 35996 ft | 497 kts | 172° |
| 2026-04-25 04:10 | -8.27954 | 15.83548 | 36006 ft | 497 kts | 172° |
| 2026-04-25 04:10 | -8.34834 | 15.84299 | 36003 ft | 497 kts | 172° |
| 2026-04-25 04:11 | -8.45152 | 15.85427 | 36015 ft | 497 kts | 172° |
| 2026-04-25 04:12 | -8.52031 | 15.86170 | 36012 ft | 498 kts | 172° |
| 2026-04-25 04:12 | -8.58874 | 15.86910 | 36012 ft | 497 kts | 172° |
| 2026-04-25 04:13 | -8.65752 | 15.87658 | 36009 ft | 497 kts | 172° |
| 2026-04-25 04:13 | -8.72626 | 15.88405 | 36014 ft | 497 kts | 172° |
| 2026-04-25 04:14 | -8.79495 | 15.89152 | 36003 ft | 496 kts | 172° |
| 2026-04-25 04:14 | -8.86361 | 15.89904 | 36006 ft | 496 kts | 172° |
| 2026-04-25 04:15 | -8.93216 | 15.90649 | 36006 ft | 495 kts | 172° |
| 2026-04-25 04:15 | -9.00074 | 15.91395 | 36006 ft | 495 kts | 172° |
| 2026-04-25 04:16 | -9.06926 | 15.92141 | 36004 ft | 495 kts | 172° |
| 2026-04-25 04:16 | -9.13776 | 15.92887 | 36003 ft | 495 kts | 172° |
| 2026-04-25 04:17 | -9.20635 | 15.93636 | 36008 ft | 496 kts | 172° |
| 2026-04-25 04:17 | -9.27489 | 15.94384 | 36008 ft | 495 kts | 172° |
| 2026-04-25 04:18 | -9.34347 | 15.95133 | 36005 ft | 496 kts | 172° |
| 2026-04-25 04:18 | -9.41203 | 15.95882 | 36005 ft | 495 kts | 172° |
| 2026-04-25 04:19 | -9.48055 | 15.96633 | 36002 ft | 495 kts | 172° |
| 2026-04-25 04:19 | -9.54899 | 15.97382 | 36006 ft | 495 kts | 172° |
| 2026-04-25 04:20 | -9.61745 | 15.98131 | 36007 ft | 494 kts | 172° |
| 2026-04-25 04:20 | -9.68582 | 15.98879 | 36009 ft | 494 kts | 172° |
| 2026-04-25 04:21 | -9.75420 | 15.99628 | 36006 ft | 494 kts | 172° |
| 2026-04-25 04:21 | -9.82247 | 16.00377 | 36008 ft | 494 kts | 172° |
| 2026-04-25 04:22 | -9.89080 | 16.01126 | 36006 ft | 494 kts | 172° |
| 2026-04-25 04:22 | -9.95905 | 16.01876 | 36012 ft | 493 kts | 172° |
| 2026-04-25 04:23 | -10.02735 | 16.02626 | 36006 ft | 493 kts | 172° |
| 2026-04-25 04:23 | -10.09557 | 16.03375 | 36013 ft | 493 kts | 172° |
| 2026-04-25 04:24 | -10.16329 | 16.04164 | 36018 ft | 493 kts | 172° |
| 2026-04-25 04:24 | -10.23138 | 16.04987 | 36020 ft | 493 kts | 172° |
| 2026-04-25 04:25 | -10.29954 | 16.05808 | 36028 ft | 493 kts | 172° |
| 2026-04-25 04:25 | -10.36763 | 16.06623 | 36028 ft | 493 kts | 172° |
| 2026-04-25 04:26 | -10.43577 | 16.07436 | 36035 ft | 493 kts | 172° |
| 2026-04-25 04:26 | -10.50393 | 16.08249 | 36040 ft | 493 kts | 172° |
| 2026-04-25 04:27 | -10.57206 | 16.09063 | 36041 ft | 493 kts | 172° |
| 2026-04-25 04:27 | -10.64011 | 16.09876 | 36041 ft | 493 kts | 172° |
| 2026-04-25 04:28 | -10.70820 | 16.10690 | 36045 ft | 492 kts | 172° |
| 2026-04-25 04:28 | -10.76473 | 16.11367 | 36049 ft | 492 kts | 172° |
| 2026-04-25 04:29 | -10.84379 | 16.12312 | 36048 ft | 492 kts | 172° |
| 2026-04-25 04:29 | -10.91180 | 16.13127 | 36054 ft | 493 kts | 172° |
| 2026-04-25 04:30 | -10.96891 | 16.13777 | 36056 ft | 494 kts | 173° |
| 2026-04-25 04:30 | -11.03732 | 16.14479 | 36052 ft | 494 kts | 174° |
| 2026-04-25 04:31 | -11.10574 | 16.15178 | 36051 ft | 494 kts | 173° |
| 2026-04-25 04:31 | -11.17419 | 16.15892 | 36053 ft | 494 kts | 173° |
| 2026-04-25 04:32 | -11.24255 | 16.16612 | 36055 ft | 494 kts | 173° |
| 2026-04-25 04:32 | -11.31052 | 16.17330 | 36056 ft | 494 kts | 174° |
| 2026-04-25 04:33 | -11.37889 | 16.18052 | 36057 ft | 494 kts | 174° |
| 2026-04-25 04:33 | -11.44718 | 16.18772 | 36060 ft | 494 kts | 174° |
| 2026-04-25 04:34 | -11.51558 | 16.19495 | 36058 ft | 494 kts | 174° |
| 2026-04-25 04:34 | -11.58390 | 16.20216 | 36058 ft | 494 kts | 174° |
| 2026-04-25 04:35 | -11.65229 | 16.20939 | 36062 ft | 494 kts | 174° |
| 2026-04-25 04:35 | -11.72060 | 16.21661 | 36062 ft | 494 kts | 174° |
| 2026-04-25 04:36 | -11.78898 | 16.22385 | 36061 ft | 494 kts | 174° |
| 2026-04-25 04:36 | -11.85730 | 16.23108 | 36064 ft | 494 kts | 174° |
| 2026-04-25 04:37 | -11.92561 | 16.23831 | 36063 ft | 493 kts | 174° |
| 2026-04-25 04:37 | -11.99389 | 16.24555 | 36064 ft | 493 kts | 174° |
| 2026-04-25 04:38 | -12.06221 | 16.25279 | 36064 ft | 493 kts | 174° |
| 2026-04-25 04:38 | -12.13041 | 16.26002 | 36066 ft | 493 kts | 174° |
| 2026-04-25 04:39 | -12.19875 | 16.26727 | 36066 ft | 493 kts | 174° |
| 2026-04-25 04:39 | -12.26702 | 16.27456 | 36069 ft | 494 kts | 174° |
| 2026-04-25 04:40 | -12.33493 | 16.28200 | 36069 ft | 494 kts | 174° |
| 2026-04-25 04:40 | -12.40321 | 16.28950 | 36072 ft | 494 kts | 174° |
| 2026-04-25 04:41 | -12.47162 | 16.29700 | 36076 ft | 494 kts | 174° |
| 2026-04-25 04:41 | -12.53998 | 16.30449 | 36079 ft | 494 kts | 174° |
| 2026-04-25 04:42 | -12.60843 | 16.31200 | 36077 ft | 494 kts | 174° |
| 2026-04-25 04:42 | -12.67678 | 16.31950 | 36081 ft | 494 kts | 174° |
| 2026-04-25 04:43 | -12.74522 | 16.32701 | 36081 ft | 494 kts | 174° |
| 2026-04-25 04:43 | -12.81361 | 16.33452 | 36081 ft | 494 kts | 174° |
| 2026-04-25 04:44 | -12.88194 | 16.34202 | 36079 ft | 494 kts | 174° |
| 2026-04-25 04:44 | -12.95035 | 16.34955 | 36083 ft | 494 kts | 174° |
| 2026-04-25 04:45 | -13.01871 | 16.35706 | 36084 ft | 494 kts | 174° |
| 2026-04-25 04:45 | -13.08714 | 16.36460 | 36084 ft | 494 kts | 174° |
| 2026-04-25 04:46 | -13.15549 | 16.37212 | 36083 ft | 494 kts | 175° |
| 2026-04-25 04:46 | -13.22392 | 16.37966 | 36083 ft | 494 kts | 175° |
| 2026-04-25 04:47 | -13.29226 | 16.38719 | 36083 ft | 494 kts | 175° |
| 2026-04-25 04:47 | -13.36069 | 16.39474 | 36085 ft | 494 kts | 175° |
| 2026-04-25 04:48 | -13.42919 | 16.40230 | 36082 ft | 495 kts | 175° |
| 2026-04-25 04:48 | -13.49760 | 16.40985 | 36085 ft | 495 kts | 175° |
| 2026-04-25 04:49 | -13.56605 | 16.41741 | 36088 ft | 495 kts | 175° |
| 2026-04-25 04:49 | -13.63454 | 16.42498 | 36084 ft | 495 kts | 175° |
| 2026-04-25 04:50 | -13.70301 | 16.43256 | 36085 ft | 495 kts | 175° |
| 2026-04-25 04:50 | -13.77157 | 16.44016 | 36082 ft | 495 kts | 175° |
| 2026-04-25 04:51 | -13.83966 | 16.44771 | 36085 ft | 496 kts | 175° |
| 2026-04-25 04:51 | -13.90829 | 16.45531 | 36088 ft | 496 kts | 175° |
| 2026-04-25 04:52 | -13.97688 | 16.46291 | 36087 ft | 496 kts | 175° |
| 2026-04-25 04:52 | -14.04551 | 16.47052 | 36086 ft | 496 kts | 175° |
| 2026-04-25 04:53 | -14.11414 | 16.47814 | 36087 ft | 496 kts | 175° |
| 2026-04-25 04:53 | -14.18286 | 16.48577 | 36087 ft | 496 kts | 175° |
| 2026-04-25 04:54 | -14.25152 | 16.49340 | 36085 ft | 497 kts | 176° |
| 2026-04-25 04:54 | -14.32029 | 16.50105 | 36085 ft | 497 kts | 176° |
| 2026-04-25 04:55 | -14.38889 | 16.50866 | 36088 ft | 495 kts | 175° |
| 2026-04-25 04:55 | -14.45717 | 16.51628 | 36086 ft | 493 kts | 175° |
| 2026-04-25 04:56 | -14.52535 | 16.52389 | 36082 ft | 492 kts | 175° |
| 2026-04-25 04:56 | -14.59354 | 16.53150 | 36084 ft | 492 kts | 175° |
| 2026-04-25 04:57 | -14.66162 | 16.53910 | 36084 ft | 492 kts | 175° |
| 2026-04-25 04:57 | -14.72979 | 16.54671 | 36078 ft | 492 kts | 175° |
| 2026-04-25 04:58 | -14.79786 | 16.55431 | 36078 ft | 492 kts | 175° |
| 2026-04-25 04:58 | -14.86595 | 16.56192 | 36079 ft | 492 kts | 175° |
| 2026-04-25 04:59 | -14.93365 | 16.56949 | 36075 ft | 492 kts | 175° |
| 2026-04-25 04:59 | -15.00171 | 16.57711 | 36074 ft | 492 kts | 175° |
| 2026-04-25 05:00 | -15.06984 | 16.58474 | 36077 ft | 492 kts | 175° |
| 2026-04-25 05:00 | -15.13794 | 16.59238 | 36073 ft | 492 kts | 175° |
| 2026-04-25 05:01 | -15.20601 | 16.60001 | 36073 ft | 492 kts | 175° |
| 2026-04-25 05:01 | -15.27417 | 16.60778 | 36072 ft | 493 kts | 175° |
| 2026-04-25 05:02 | -15.34228 | 16.61559 | 36071 ft | 493 kts | 175° |
| 2026-04-25 05:02 | -15.41052 | 16.62341 | 36074 ft | 493 kts | 175° |
| 2026-04-25 05:03 | -15.47866 | 16.63121 | 36072 ft | 493 kts | 175° |
| 2026-04-25 05:03 | -15.54683 | 16.63901 | 36072 ft | 493 kts | 175° |
| 2026-04-25 05:04 | -15.61509 | 16.64682 | 36072 ft | 493 kts | 175° |
| 2026-04-25 05:04 | -15.68330 | 16.65464 | 36076 ft | 493 kts | 175° |
| 2026-04-25 05:05 | -15.75143 | 16.66245 | 36074 ft | 493 kts | 175° |
| 2026-04-25 05:05 | -15.81963 | 16.67028 | 36073 ft | 493 kts | 175° |
| 2026-04-25 05:06 | -15.88776 | 16.67810 | 36070 ft | 493 kts | 175° |
| 2026-04-25 05:06 | -15.95597 | 16.68594 | 36073 ft | 493 kts | 175° |
| 2026-04-25 05:07 | -16.02412 | 16.69378 | 36073 ft | 493 kts | 175° |
| 2026-04-25 05:07 | -16.09228 | 16.70162 | 36073 ft | 493 kts | 175° |
| 2026-04-25 05:08 | -16.16056 | 16.70948 | 36076 ft | 493 kts | 176° |
| 2026-04-25 05:08 | -16.22872 | 16.71734 | 36073 ft | 493 kts | 176° |
| 2026-04-25 05:09 | -16.29636 | 16.72514 | 36078 ft | 493 kts | 176° |
| 2026-04-25 05:09 | -16.36453 | 16.73301 | 36079 ft | 493 kts | 176° |
| 2026-04-25 05:10 | -16.43272 | 16.74088 | 36081 ft | 493 kts | 176° |
| 2026-04-25 05:10 | -16.50092 | 16.74876 | 36074 ft | 493 kts | 176° |
| 2026-04-25 05:11 | -16.56914 | 16.75665 | 36082 ft | 493 kts | 176° |
| 2026-04-25 05:11 | -16.63727 | 16.76453 | 36083 ft | 493 kts | 176° |
| 2026-04-25 05:12 | -16.73952 | 16.77637 | 36079 ft | 493 kts | 176° |
| 2026-04-25 05:12 | -16.80764 | 16.78427 | 36086 ft | 493 kts | 176° |
| 2026-04-25 05:13 | -16.87579 | 16.79218 | 36088 ft | 492 kts | 176° |
| 2026-04-25 05:13 | -16.94383 | 16.80008 | 36084 ft | 492 kts | 176° |
| 2026-04-25 05:14 | -17.01148 | 16.80793 | 36082 ft | 492 kts | 176° |
| 2026-04-25 05:15 | -17.11352 | 16.81980 | 36089 ft | 492 kts | 176° |
| 2026-04-25 05:15 | -17.18150 | 16.82771 | 36094 ft | 492 kts | 176° |
| 2026-04-25 05:16 | -17.24950 | 16.83563 | 36086 ft | 492 kts | 176° |
| 2026-04-25 05:16 | -17.31747 | 16.84355 | 36085 ft | 491 kts | 176° |
| 2026-04-25 05:17 | -17.38540 | 16.85148 | 36094 ft | 491 kts | 176° |
| 2026-04-25 05:17 | -17.45335 | 16.85933 | 36091 ft | 491 kts | 176° |
| 2026-04-25 05:18 | -17.50941 | 16.86581 | 36096 ft | 491 kts | 176° |
| 2026-04-25 05:18 | -17.57772 | 16.87372 | 36093 ft | 491 kts | 176° |
| 2026-04-25 05:19 | -17.64559 | 16.88158 | 36090 ft | 491 kts | 177° |
| 2026-04-25 05:19 | -17.71350 | 16.88945 | 36084 ft | 491 kts | 177° |
| 2026-04-25 05:20 | -17.78140 | 16.89732 | 36093 ft | 491 kts | 177° |
| 2026-04-25 05:20 | -17.84926 | 16.90519 | 36097 ft | 491 kts | 177° |
| 2026-04-25 05:21 | -17.91722 | 16.91309 | 36100 ft | 491 kts | 177° |
| 2026-04-25 05:21 | -17.98510 | 16.92098 | 36098 ft | 491 kts | 177° |
| 2026-04-25 05:22 | -18.05307 | 16.92889 | 36098 ft | 491 kts | 177° |
| 2026-04-25 05:22 | -18.12098 | 16.93679 | 36103 ft | 491 kts | 177° |
| 2026-04-25 05:23 | -18.18889 | 16.94470 | 36101 ft | 491 kts | 177° |
| 2026-04-25 05:23 | -18.25592 | 16.95252 | 36108 ft | 491 kts | 177° |
| 2026-04-25 05:24 | -18.32437 | 16.96051 | 36103 ft | 491 kts | 177° |
| 2026-04-25 05:24 | -18.39224 | 16.96843 | 36103 ft | 491 kts | 177° |
| 2026-04-25 05:25 | -18.46018 | 16.97637 | 36104 ft | 491 kts | 177° |
| 2026-04-25 05:25 | -18.52804 | 16.98431 | 36107 ft | 491 kts | 177° |
| 2026-04-25 05:26 | -18.59593 | 16.99226 | 36109 ft | 491 kts | 178° |
| 2026-04-25 05:26 | -18.66369 | 17.00019 | 36109 ft | 490 kts | 178° |
| 2026-04-25 05:27 | -18.73153 | 17.00815 | 36111 ft | 490 kts | 178° |
| 2026-04-25 05:27 | -18.79779 | 17.01592 | 36113 ft | 490 kts | 178° |
| 2026-04-25 05:28 | -18.86551 | 17.02387 | 36118 ft | 489 kts | 178° |
| 2026-04-25 05:28 | -18.93316 | 17.03182 | 36119 ft | 489 kts | 178° |
| 2026-04-25 05:29 | -19.00084 | 17.03978 | 36120 ft | 489 kts | 178° |
| 2026-04-25 05:29 | -19.06838 | 17.04773 | 36120 ft | 489 kts | 178° |
| 2026-04-25 05:30 | -19.13589 | 17.05569 | 36123 ft | 488 kts | 178° |
| 2026-04-25 05:30 | -19.20338 | 17.06370 | 36121 ft | 488 kts | 178° |
| 2026-04-25 05:31 | -19.27086 | 17.07196 | 36122 ft | 488 kts | 178° |
| 2026-04-25 05:31 | -19.33830 | 17.08024 | 36128 ft | 487 kts | 178° |
| 2026-04-25 05:32 | -19.40570 | 17.08849 | 36129 ft | 487 kts | 178° |
| 2026-04-25 05:32 | -19.46239 | 17.09542 | 36133 ft | 487 kts | 178° |
| 2026-04-25 05:33 | -19.52943 | 17.10361 | 36137 ft | 487 kts | 178° |
| 2026-04-25 05:33 | -19.59663 | 17.11182 | 36138 ft | 486 kts | 178° |
| 2026-04-25 05:34 | -19.66388 | 17.12005 | 36141 ft | 486 kts | 178° |
| 2026-04-25 05:34 | -19.73103 | 17.12828 | 36142 ft | 486 kts | 178° |
| 2026-04-25 05:35 | -19.79817 | 17.13651 | 36148 ft | 485 kts | 178° |
| 2026-04-25 05:35 | -19.86526 | 17.14473 | 36147 ft | 485 kts | 178° |
| 2026-04-25 05:36 | -19.93227 | 17.15297 | 36151 ft | 485 kts | 178° |
| 2026-04-25 05:36 | -19.99931 | 17.16121 | 36152 ft | 485 kts | 178° |
| 2026-04-25 05:37 | -20.06628 | 17.16945 | 36151 ft | 485 kts | 178° |
| 2026-04-25 05:37 | -20.13087 | 17.17741 | 36153 ft | 484 kts | 178° |
| 2026-04-25 05:38 | -20.19634 | 17.18547 | 36149 ft | 484 kts | 178° |
| 2026-04-25 05:38 | -20.26328 | 17.19373 | 36153 ft | 484 kts | 179° |
| 2026-04-25 05:39 | -20.33024 | 17.20199 | 36147 ft | 484 kts | 179° |
| 2026-04-25 05:39 | -20.39712 | 17.21026 | 36150 ft | 484 kts | 179° |
| 2026-04-25 05:40 | -20.46404 | 17.21854 | 36145 ft | 484 kts | 179° |
| 2026-04-25 05:40 | -20.53041 | 17.22675 | 36145 ft | 484 kts | 179° |
| 2026-04-25 05:41 | -20.59722 | 17.23503 | 36143 ft | 483 kts | 179° |
| 2026-04-25 05:41 | -20.66407 | 17.24332 | 36149 ft | 483 kts | 179° |
| 2026-04-25 05:42 | -20.73077 | 17.25159 | 36139 ft | 483 kts | 179° |
| 2026-04-25 05:42 | -20.76408 | 17.25574 | 35754 ft | 479 kts | 179° |
| 2026-04-25 05:42 | -20.79708 | 17.25986 | 35330 ft | 477 kts | 179° |
| 2026-04-25 05:42 | -20.83013 | 17.26397 | 35175 ft | 480 kts | 179° |
| 2026-04-25 05:43 | -20.86339 | 17.26811 | 35139 ft | 482 kts | 179° |
| 2026-04-25 05:43 | -20.93014 | 17.27636 | 35145 ft | 483 kts | 179° |
| 2026-04-25 05:44 | -20.99679 | 17.28463 | 35110 ft | 482 kts | 179° |
| 2026-04-25 05:44 | -21.03003 | 17.28880 | 34645 ft | 479 kts | 179° |
| 2026-04-25 05:44 | -21.06307 | 17.29295 | 34024 ft | 477 kts | 179° |
| 2026-04-25 05:44 | -21.09601 | 17.29711 | 33288 ft | 476 kts | 179° |
| 2026-04-25 05:45 | -21.12891 | 17.30131 | 32467 ft | 478 kts | 179° |
| 2026-04-25 05:45 | -21.16199 | 17.30562 | 31605 ft | 480 kts | 179° |
| 2026-04-25 05:45 | -21.19524 | 17.31002 | 30742 ft | 482 kts | 179° |
| 2026-04-25 05:45 | -21.22857 | 17.31452 | 29822 ft | 485 kts | 179° |
| 2026-04-25 05:46 | -21.26213 | 17.31905 | 28876 ft | 486 kts | 178° |
| 2026-04-25 05:46 | -21.29571 | 17.32345 | 28029 ft | 485 kts | 178° |
| 2026-04-25 05:46 | -21.32912 | 17.32766 | 27250 ft | 482 kts | 178° |
| 2026-04-25 05:46 | -21.36235 | 17.33172 | 26553 ft | 479 kts | 178° |
| 2026-04-25 05:47 | -21.39541 | 17.33562 | 25867 ft | 476 kts | 178° |
| 2026-04-25 05:47 | -21.42826 | 17.33937 | 25193 ft | 473 kts | 178° |
| 2026-04-25 05:47 | -21.46055 | 17.34292 | 24534 ft | 471 kts | 178° |
| 2026-04-25 05:47 | -21.49344 | 17.34639 | 23866 ft | 468 kts | 178° |
| 2026-04-25 05:48 | -21.52539 | 17.34962 | 23111 ft | 466 kts | 178° |
| 2026-04-25 05:48 | -21.55752 | 17.35279 | 22431 ft | 461 kts | 178° |
| 2026-04-25 05:48 | -21.58922 | 17.35590 | 21779 ft | 456 kts | 178° |
| 2026-04-25 05:48 | -21.62066 | 17.35897 | 21119 ft | 451 kts | 178° |
| 2026-04-25 05:49 | -21.65176 | 17.36199 | 20475 ft | 446 kts | 178° |
| 2026-04-25 05:49 | -21.68250 | 17.36497 | 19821 ft | 442 kts | 178° |
| 2026-04-25 05:49 | -21.71302 | 17.36789 | 19198 ft | 438 kts | 178° |
| 2026-04-25 05:49 | -21.74321 | 17.37077 | 18583 ft | 434 kts | 178° |
| 2026-04-25 05:50 | -21.77313 | 17.37360 | 17887 ft | 430 kts | 178° |
| 2026-04-25 05:50 | -21.80286 | 17.37633 | 17159 ft | 427 kts | 178° |
| 2026-04-25 05:50 | -21.83236 | 17.37886 | 16453 ft | 424 kts | 178° |
| 2026-04-25 05:50 | -21.86172 | 17.38120 | 15752 ft | 421 kts | 178° |
| 2026-04-25 05:51 | -21.89078 | 17.38333 | 15092 ft | 417 kts | 178° |
| 2026-04-25 05:51 | -21.91967 | 17.38528 | 14410 ft | 415 kts | 178° |
| 2026-04-25 05:51 | -21.94840 | 17.38702 | 13759 ft | 412 kts | 178° |
| 2026-04-25 05:51 | -21.97693 | 17.38756 | 13300 ft | 408 kts | 184° |
| 2026-04-25 05:52 | -22.00497 | 17.38352 | 13171 ft | 407 kts | 192° |
| 2026-04-25 05:52 | -22.03268 | 17.37725 | 13160 ft | 406 kts | 193° |
| 2026-04-25 05:52 | -22.05970 | 17.37093 | 13156 ft | 388 kts | 193° |
| 2026-04-25 05:52 | -22.08536 | 17.36496 | 13157 ft | 367 kts | 193° |
| 2026-04-25 05:53 | -22.10977 | 17.35929 | 13158 ft | 349 kts | 193° |
| 2026-04-25 05:53 | -22.13287 | 17.35394 | 13157 ft | 331 kts | 193° |
| 2026-04-25 05:53 | -22.15489 | 17.34880 | 13160 ft | 318 kts | 194° |
| 2026-04-25 05:53 | -22.17588 | 17.34185 | 13173 ft | 315 kts | 201° |
| 2026-04-25 05:54 | -22.19629 | 17.33337 | 13176 ft | 315 kts | 203° |
| 2026-04-25 05:54 | -22.21670 | 17.32466 | 13181 ft | 315 kts | 203° |
| 2026-04-25 05:54 | -22.25676 | 17.30693 | 13180 ft | 300 kts | 208° |
| 2026-04-25 05:55 | -22.27447 | 17.29631 | 13182 ft | 285 kts | 212° |
| 2026-04-25 05:55 | -22.29123 | 17.28547 | 13187 ft | 278 kts | 213° |
| 2026-04-25 05:55 | -22.30775 | 17.27469 | 13142 ft | 276 kts | 213° |
| 2026-04-25 05:55 | -22.32418 | 17.26436 | 12893 ft | 272 kts | 207° |
| 2026-04-25 05:56 | -22.34182 | 17.25857 | 12744 ft | 266 kts | 191° |
| 2026-04-25 05:56 | -22.35990 | 17.25573 | 12596 ft | 259 kts | 188° |
| 2026-04-25 05:56 | -22.37758 | 17.25338 | 12374 ft | 255 kts | 188° |
| 2026-04-25 05:56 | -22.39509 | 17.25111 | 12114 ft | 253 kts | 188° |
| 2026-04-25 05:57 | -22.41253 | 17.24887 | 11846 ft | 251 kts | 187° |
| 2026-04-25 05:57 | -22.42975 | 17.24666 | 11501 ft | 248 kts | 187° |
| 2026-04-25 05:57 | -22.44687 | 17.24445 | 11083 ft | 248 kts | 187° |
| 2026-04-25 05:57 | -22.46405 | 17.24343 | 10839 ft | 247 kts | 175° |
| 2026-04-25 05:58 | -22.48062 | 17.24734 | 10574 ft | 241 kts | 164° |
| 2026-04-25 05:58 | -22.49638 | 17.25257 | 10447 ft | 232 kts | 163° |
| 2026-04-25 05:58 | -22.51159 | 17.25783 | 10298 ft | 223 kts | 162° |
| 2026-04-25 05:58 | -22.52605 | 17.26288 | 10055 ft | 220 kts | 162° |
| 2026-04-25 05:59 | -22.54055 | 17.26793 | 9768 ft | 217 kts | 162° |
| 2026-04-25 05:59 | -22.55448 | 17.27375 | 9278 ft | 216 kts | 150° |
| 2026-04-25 05:59 | -22.56398 | 17.28583 | 8795 ft | 213 kts | 107° |
| 2026-04-25 05:59 | -22.56327 | 17.30134 | 8708 ft | 210 kts | 64° |
| 2026-04-25 06:00 | -22.55520 | 17.31410 | 8471 ft | 201 kts | 50° |
| 2026-04-25 06:00 | -22.54745 | 17.32600 | 8149 ft | 187 kts | 55° |
| 2026-04-25 06:00 | -22.54119 | 17.33774 | 7907 ft | 174 kts | 59° |
| 2026-04-25 06:00 | -22.53582 | 17.34914 | 7664 ft | 165 kts | 60° |
| 2026-04-25 06:01 | -22.53085 | 17.36001 | 7450 ft | 157 kts | 60° |
| 2026-04-25 06:01 | -22.52609 | 17.37038 | 7251 ft | 153 kts | 60° |
| 2026-04-25 06:01 | -22.52146 | 17.38065 | 7066 ft | 151 kts | 61° |
| 2026-04-25 06:01 | -22.51691 | 17.39089 | 6864 ft | 153 kts | 60° |
| 2026-04-25 06:02 | -22.51210 | 17.40118 | 6623 ft | 155 kts | 59° |
| 2026-04-25 06:02 | -22.50717 | 17.41145 | 6409 ft | 150 kts | 60° |
| 2026-04-25 06:02 | -22.50265 | 17.42148 | 6225 ft | 147 kts | 63° |
| 2026-04-25 06:02 | -22.49825 | 17.43142 | 6054 ft | 146 kts | 61° |
| 2026-04-25 06:03 | -22.49368 | 17.44118 | 5882 ft | 145 kts | 62° |
| 2026-04-25 06:03 | -22.48917 | 17.45096 | 5700 ft | 145 kts | 61° |
| 2026-04-25 06:03 | -22.48472 | 17.46052 | 5618 ft | 130 kts | 64° |
| 2026-04-25 06:03 | -22.48116 | 17.46823 | 5601 ft | 98 kts | 63° |
| 2026-04-25 06:04 | -22.47861 | 17.47377 | 5577 ft | 66 kts | 63° |
| 2026-04-25 06:04 | -22.47704 | 17.47713 | 5569 ft | 33 kts | 63° |
| 2026-04-25 06:04 | -22.47646 | 17.47837 | 5565 ft | 7 kts | 63° |
| 2026-04-25 06:04 | -22.47657 | 17.47895 | 5564 ft | 10 kts | 134° |
| 2026-04-25 06:05 | -22.47729 | 17.47900 | 5562 ft | 12 kts | 209° |
| 2026-04-25 06:05 | -22.47775 | 17.47829 | 5565 ft | 11 kts | 244° |
| 2026-04-25 06:05 | -22.47809 | 17.47754 | 5566 ft | 11 kts | 243° |
| 2026-04-25 06:05 | -22.47832 | 17.47705 | 5568 ft | 11 kts | 243° |
| 2026-04-25 06:06 | -22.47866 | 17.47630 | 5571 ft | 11 kts | 243° |
| 2026-04-25 06:06 | -22.47901 | 17.47556 | 5572 ft | 11 kts | 243° |
| 2026-04-25 06:06 | -22.47934 | 17.47483 | 5575 ft | 11 kts | 244° |
| 2026-04-25 06:06 | -22.47967 | 17.47411 | 5577 ft | 11 kts | 244° |
| 2026-04-25 06:07 | -22.48001 | 17.47337 | 5579 ft | 11 kts | 243° |
| 2026-04-25 06:07 | -22.48024 | 17.47289 | 5582 ft | 4 kts | 243° |
| 2026-04-25 06:07 | -22.48029 | 17.47278 | 5582 ft | 0 kts | 243° |
| 2026-04-25 06:08 | -22.48048 | 17.47236 | 5582 ft | 14 kts | 243° |
| 2026-04-25 06:08 | -22.48108 | 17.47105 | 5585 ft | 21 kts | 244° |
| 2026-04-25 06:08 | -22.48174 | 17.46963 | 5585 ft | 21 kts | 243° |
| 2026-04-25 06:09 | -22.48238 | 17.46823 | 5597 ft | 20 kts | 244° |
| 2026-04-25 06:09 | -22.48300 | 17.46690 | 5605 ft | 19 kts | 243° |
| 2026-04-25 06:09 | -22.48350 | 17.46582 | 5608 ft | 14 kts | 243° |
| 2026-04-25 06:09 | -22.48393 | 17.46490 | 5610 ft | 13 kts | 243° |
| 2026-04-25 06:10 | -22.48432 | 17.46405 | 5615 ft | 12 kts | 244° |
| 2026-04-25 06:10 | -22.48467 | 17.46323 | 5610 ft | 12 kts | 245° |
| 2026-04-25 06:10 | -22.48503 | 17.46282 | 5617 ft | 5 kts | 195° |
| 2026-04-25 06:10 | -22.48532 | 17.46285 | 5617 ft | 4 kts | 166° |
| 2026-04-25 06:11 | -22.48566 | 17.46300 | 5619 ft | 2 kts | 155° |
| 2026-04-25 06:11 | -22.48579 | 17.46307 | 5617 ft | 3 kts | 154° |
| 2026-04-25 06:11 | -22.48601 | 17.46318 | 5616 ft | 1 kts | 153° |
| 2026-04-25 06:11 | -22.48602 | 17.46319 | 5616 ft | 0 kts | 154° |